Latest Weather Observations for Kalumburu

IDW60801

Issued at 11:32 am WST Saturday 18 April 2015 (issued every 30 minutes, with the page automatically refreshed every 10 minutes)

About weather observations | Map of weather stations | Latest weather observations for WA | Other Formats
Station Details ID: 001019 Name: KALUMBURU Lat: -14.30 Lon: 126.65 Height: 23.0 m
Data from the previous 72 hours. | See also: Recent months at Kalumburu
Date/Time
WST
Temp
°C
App
Temp
°C
Dew
Point
Rel
Hum
%
Delta-T
°C
Wind Press
QNH
hPa
Press
MSL
hPa
Rain
since 9 am
mm
Dir
 
Spd
km/h
Gust
km/h
Spd
kts
Gust
kts
18/11:30am 30.6 33.9 21.9 59 5.9 SSW 7 11 4 6 1011.2 1011.0 0.0
18/11:00am 30.0 32.5 21.1 59 5.9 SSW 9 13 5 7 1011.8 1011.6 0.0
18/10:30am 29.9 32.7 21.6 61 5.6 S 9 13 5 7 1012.3 1012.1 0.0
18/10:00am 29.8 32.6 21.5 61 5.6 SSW 9 13 5 7 1012.5 1012.3 0.0
18/09:30am 30.1 34.1 22.8 65 5.0 SSE 6 11 3 6 1012.5 1012.3 0.0
18/09:00am 29.0 33.1 23.2 71 4.0 S 7 9 4 5 1012.7 1012.5 0.0
18/08:30am 28.2 31.8 23.1 74 3.5 SSW 9 11 5 6 1012.7 1012.5 0.0
18/08:00am 27.8 31.7 23.0 75 3.3 S 7 15 4 8 1012.4 1012.2 0.0
18/07:30am 27.2 32.1 23.7 81 2.4 S 4 7 2 4 1012.3 1012.1 0.0
18/07:00am 26.3 32.3 24.2 88 1.4 CALM 0 0 0 0 1012.5 1012.3 0.0
18/06:30am 25.6 31.3 23.8 90 1.2 CALM 0 0 0 0 1012.2 1012.0 0.0
18/06:00am 24.5 29.6 22.7 90 1.2 CALM 0 0 0 0 1012.0 1011.8 0.0
18/05:30am 24.5 29.6 22.6 89 1.3 CALM 0 0 0 0 1011.6 1011.4 0.0
18/05:00am 24.3 29.2 22.4 89 1.3 CALM 0 0 0 0 1011.4 1011.2 0.0
18/04:30am 24.3 29.2 22.4 89 1.3 CALM 0 0 0 0 1011.3 1011.1 0.0
18/04:00am 24.4 29.4 22.5 89 1.3 CALM 0 0 0 0 1011.2 1011.0 0.0
18/03:30am 24.7 29.9 22.8 89 1.3 CALM 0 0 0 0 1010.9 1010.7 0.0
18/03:00am 24.4 29.3 22.3 88 1.4 CALM 0 0 0 0 1010.6 1010.4 0.0
18/02:30am 24.4 29.4 22.5 89 1.3 CALM 0 0 0 0 1010.4 1010.2 0.0
18/02:00am 24.5 29.4 22.4 88 1.4 CALM 0 0 0 0 1010.4 1010.2 0.0
18/01:30am 24.9 29.0 23.0 89 1.3 SSE 6 9 3 5 1010.7 1010.5 0.0
18/01:00am 24.7 29.8 22.6 88 1.4 CALM 0 0 0 0 1011.3 1011.1 0.0
18/12:30am 24.7 29.6 22.4 87 1.5 CALM 0 0 0 0 1011.4 1011.2 0.0
18/12:00am 24.8 29.7 22.3 86 1.7 CALM 0 0 0 0 1011.7 1011.5 0.0
 
Date/Time
WST
Temp
°C
App
Temp
°C
Dew
Point
Rel
Hum
%
Delta-T
°C
Wind Press
QNH
hPa
Press
MSL
hPa
Rain
since 9 am
mm
Dir
 
Spd
km/h
Gust
km/h
Spd
kts
Gust
kts
17/11:30pm 25.3 30.6 23.0 87 1.6 CALM 0 0 0 0 1012.0 1011.8 0.0
17/11:00pm 25.5 30.8 23.0 86 1.7 CALM 0 0 0 0 1012.0 1011.8 0.0
17/10:30pm 25.8 31.1 23.1 85 1.8 CALM 0 0 0 0 1012.0 1011.8 0.0
17/10:00pm 25.7 29.8 23.0 85 1.8 NNE 6 7 3 4 1012.2 1012.0 0.0
17/09:30pm 25.9 29.9 22.8 83 2.1 N 6 6 3 3 1012.4 1012.2 0.0
17/09:00pm 26.5 30.4 22.6 79 2.6 N 6 7 3 4 1012.5 1012.3 0.0
17/08:30pm 26.5 30.0 22.1 77 3.0 N 7 7 4 4 1012.5 1012.3 0.0
17/08:00pm 27.5 31.2 22.2 73 3.6 N 6 9 3 5 1012.3 1012.1 0.0
17/07:30pm 28.0 31.8 22.7 73 3.6 N 7 11 4 6 1011.7 1011.5 0.0
17/07:00pm 28.1 31.4 22.6 72 3.7 N 9 13 5 7 1011.2 1011.0 0.0
17/06:30pm 28.6 31.8 22.3 68 4.3 N 9 15 5 8 1010.8 1010.6 0.0
17/06:00pm 29.0 31.5 21.7 64 4.9 N 11 17 6 9 1010.4 1010.2 0.0
17/05:30pm 29.5 31.3 21.2 61 5.5 NNW 13 19 7 10 1010.0 1009.8 0.0
17/05:00pm 30.2 31.7 21.3 59 6.0 N 15 22 8 12 1009.6 1009.4 0.0
17/04:30pm 31.2 33.0 21.1 55 6.8 NNW 13 20 7 11 1009.4 1009.2 0.0
17/04:00pm 31.8 33.2 21.0 52 7.3 N 15 24 8 13 1009.1 1008.9 0.0
17/03:30pm 32.1 32.9 20.7 51 7.6 N 17 24 9 13 1009.1 1008.9 0.0
17/03:00pm 32.5 34.5 22.3 55 7.0 N 15 20 8 11 1009.0 1008.8 0.0
17/02:30pm 32.0 32.4 20.6 51 7.6 N 19 32 10 17 1009.1 1008.9 0.0
17/02:00pm 32.5 33.9 20.4 49 8.1 NNW 13 26 7 14 1009.1 1008.9 0.0
17/01:30pm 33.7 37.0 20.8 46 8.7 W 4 7 2 4 1009.3 1009.1 0.0
17/01:00pm 33.0 34.3 20.2 47 8.5 NNW 13 17 7 9 1009.7 1009.5 0.0
17/12:30pm 34.1 36.0 20.5 45 9.1 NNE 11 17 6 9 1010.2 1010.0 0.0
17/12:00pm 33.8 34.7 18.3 39 10.1 ENE 11 20 6 11 1010.6 1010.4 0.0
17/11:30am 33.5 35.1 19.9 44 9.0 NE 11 17 6 9 1010.9 1010.7 0.0
17/11:00am 33.6 35.4 20.4 46 8.8 NNE 11 17 6 9 1011.3 1011.1 0.0
17/10:30am 33.1 35.3 20.3 47 8.5 NNE 9 17 5 9 1012.0 1011.8 0.0
17/10:00am 32.5 34.9 19.7 46 8.5 WNW 6 11 3 6 1012.7 1012.5 0.0
17/09:30am 31.9 34.6 20.2 50 7.8 N 6 11 3 6 1013.1 1012.9 0.0
17/09:00am 30.6 34.1 21.9 59 5.9 SSW 6 7 3 4 1013.3 1013.1 0.0
17/08:30am 30.2 35.0 22.9 65 5.0 SSW 2 9 1 5 1013.6 1013.4 0.0
17/08:00am 28.6 33.5 23.1 72 3.8 SSW 2 7 1 4 1013.6 1013.4 0.0
17/07:30am 27.8 33.4 23.6 78 2.9 CALM 0 0 0 0 1013.4 1013.2 0.0
17/07:00am 26.2 32.1 24.1 88 1.4 CALM 0 0 0 0 1012.9 1012.7 0.0
17/06:30am 25.1 30.5 23.3 90 1.2 CALM 0 0 0 0 1012.7 1012.5 0.0
17/06:00am 24.0 28.9 22.3 90 1.1 CALM 0 0 0 0 1012.3 1012.1 0.0
17/05:30am 23.8 28.6 22.1 90 1.1 CALM 0 0 0 0 1012.5 1012.3 0.0
17/05:00am 23.7 28.3 21.8 89 1.3 CALM 0 0 0 0 1012.4 1012.2 0.0
17/04:30am 24.1 29.0 22.4 90 1.1 CALM 0 0 0 0 1012.1 1011.9 0.0
17/04:00am 23.8 28.5 21.9 89 1.3 CALM 0 0 0 0 1012.0 1011.8 0.0
17/03:30am 23.9 28.6 22.0 89 1.3 CALM 0 0 0 0 1012.0 1011.8 0.0
17/03:00am 24.2 29.2 22.5 90 1.1 CALM 0 6 0 3 1012.0 1011.8 0.0
17/02:30am 24.3 29.2 22.4 89 1.3 CALM 0 0 0 0 1011.6 1011.4 0.0
17/02:00am 24.1 28.8 22.0 88 1.4 CALM 0 0 0 0 1011.8 1011.6 0.0
17/01:30am 24.4 29.2 22.1 87 1.5 CALM 0 0 0 0 1012.3 1012.1 0.0
17/01:00am 24.8 29.8 22.5 87 1.5 CALM 0 0 0 0 1012.4 1012.2 0.0
17/12:30am 25.0 29.9 22.3 85 1.8 CALM 0 6 0 3 1012.9 1012.7 0.0
17/12:00am 25.2 29.3 22.9 87 1.6 S 6 9 3 5 1013.4 1013.2 0.0
 
Date/Time
WST
Temp
°C
App
Temp
°C
Dew
Point
Rel
Hum
%
Delta-T
°C
Wind Press
QNH
hPa
Press
MSL
hPa
Rain
since 9 am
mm
Dir
 
Spd
km/h
Gust
km/h
Spd
kts
Gust
kts
16/11:30pm 25.5 30.5 23.2 87 1.6 S 2 7 1 4 1013.6 1013.4 0.0
16/11:00pm 24.9 30.1 22.8 88 1.4 CALM 0 0 0 0 1014.1 1013.9 0.0
16/10:30pm 24.8 29.8 22.5 87 1.5 CALM 0 0 0 0 1014.2 1014.0 0.0
16/10:00pm 25.1 30.3 22.8 87 1.6 CALM 0 0 0 0 1014.4 1014.2 0.0
16/09:30pm 25.4 30.5 22.7 85 1.8 CALM 0 0 0 0 1014.5 1014.3 0.0
16/09:00pm 25.6 30.7 22.7 84 2.0 CALM 0 0 0 0 1014.6 1014.4 0.0
16/08:30pm 25.8 30.7 22.3 81 2.4 CALM 0 0 0 0 1014.6 1014.4 0.0
16/08:00pm 26.3 31.2 22.4 79 2.6 CALM 0 0 0 0 1014.3 1014.1 0.0
16/07:30pm 26.6 30.2 22.4 78 2.8 NNE 7 11 4 6 1014.0 1013.8 0.0
16/07:00pm 27.0 30.7 22.2 75 3.2 NW 6 7 3 4 1013.4 1013.2 0.0
16/06:30pm 27.7 31.2 22.2 72 3.7 NNW 7 9 4 5 1012.9 1012.7 0.0
16/06:00pm 27.9 31.4 22.1 70 3.9 N 7 9 4 5 1012.5 1012.3 0.0
16/05:30pm 28.5 31.8 22.5 70 4.1 N 9 13 5 7 1012.0 1011.8 0.0
16/05:00pm 29.1 31.7 22.6 68 4.4 N 13 17 7 9 1011.6 1011.4 0.0
16/04:30pm 29.2 32.2 23.4 71 4.0 N 13 20 7 11 1011.5 1011.3 0.0
16/04:00pm 29.9 33.1 23.1 67 4.7 NNW 11 17 6 9 1011.3 1011.1 0.0
16/03:30pm 30.2 33.5 22.6 63 5.2 N 9 13 5 7 1011.1 1010.9 0.0
16/03:00pm 31.2 34.8 23.0 61 5.6 NNE 9 17 5 9 1011.3 1011.1 0.0
16/02:30pm 28.8 31.2 22.3 68 4.4 NNE 13 19 7 10 1011.4 1011.2 0.0
16/02:00pm 29.5 32.0 22.5 66 4.8 N 13 20 7 11 1011.5 1011.3 0.0
16/01:30pm 30.1 30.4 22.3 63 5.3 N 24 35 13 19 1012.0 1011.8 0.0
16/01:00pm 31.9 31.4 21.4 53 7.1 NE 26 43 14 23 1011.7 1011.5 0.0
16/12:57pm 33.4 33.8 20.9 48 8.4 NE 20 43 11 23 1011.7 1011.5 0.0
16/12:30pm 34.9 36.4 20.5 43 9.7 NE 13 22 7 12 1011.7 1011.5 0.0
16/12:00pm 33.6 36.8 21.7 49 8.1 NE 7 15 4 8 1012.2 1012.0 0.0
16/11:30am 34.9 37.9 21.9 46 8.9 NNE 9 19 5 10 1012.8 1012.6 0.0
16/11:00am 33.8 37.0 21.6 49 8.3 S 7 13 4 7 1013.3 1013.1 0.0
16/10:30am 32.5 37.3 22.9 57 6.6 SW 2 7 1 4 1013.9 1013.7 0.0
16/10:00am 32.1 35.6 22.2 56 6.7 SW 7 11 4 6 1014.6 1014.4 0.0
16/09:30am 32.2 36.3 22.9 58 6.4 WSW 6 9 3 5 1014.9 1014.7 0.0
16/09:00am 31.2 34.5 22.5 60 5.9 SSW 9 13 5 7 1015.3 1015.1 0.0
16/08:30am 30.3 33.0 22.2 62 5.5 S 11 17 6 9 1015.2 1015.0 0.0
16/08:00am 29.3 33.1 22.8 68 4.4 S 7 11 4 6 1015.2 1015.0 0.0
16/07:30am 28.3 32.6 23.7 76 3.2 S 7 11 4 6 1015.1 1014.9 0.0
16/07:00am 27.0 31.3 23.7 82 2.3 S 7 13 4 7 1014.9 1014.7 0.0
16/06:30am 25.3 30.9 23.5 90 1.2 CALM 0 0 0 0 1014.7 1014.5 0.0
16/06:00am 23.3 27.8 21.6 90 1.1 CALM 0 0 0 0 1014.4 1014.2 0.0
16/05:30am 23.3 27.7 21.4 89 1.3 CALM 0 0 0 0 1014.1 1013.9 0.0
16/05:00am 23.3 27.7 21.4 89 1.3 CALM 0 0 0 0 1013.7 1013.5 0.0
16/04:30am 23.7 28.3 21.8 89 1.3 CALM 0 0 0 0 1013.4 1013.2 0.0
16/04:00am 23.8 28.5 21.9 89 1.3 CALM 0 0 0 0 1013.3 1013.1 0.0
16/03:30am 23.8 28.5 21.9 89 1.3 CALM 0 0 0 0 1013.1 1012.9 0.0
16/03:00am 23.8 28.5 21.9 89 1.3 CALM 0 0 0 0 1013.1 1012.9 0.0
16/02:30am 23.9 28.6 22.0 89 1.3 CALM 0 0 0 0 1013.3 1013.1 0.0
16/02:00am 24.1 28.9 22.2 89 1.3 CALM 0 0 0 0 1013.5 1013.3 0.0
16/01:30am 24.1 28.9 22.2 89 1.3 CALM 0 0 0 0 1013.5 1013.3 0.0
16/01:00am 24.1 28.8 22.0 88 1.4 CALM 0 0 0 0 1013.6 1013.4 0.0
16/12:30am 23.9 28.0 21.6 87 1.5 S 2 6 1 3 1013.8 1013.6 0.0
16/12:00am 24.6 28.9 22.7 89 1.3 SSE 4 6 2 3 1014.0 1013.8 0.0
 
Date/Time
WST
Temp
°C
App
Temp
°C
Dew
Point
Rel
Hum
%
Delta-T
°C
Wind Press
QNH
hPa
Press
MSL
hPa
Rain
since 9 am
mm
Dir
 
Spd
km/h
Gust
km/h
Spd
kts
Gust
kts
15/11:30pm 24.5 29.4 22.4 88 1.4 CALM 0 0 0 0 1014.2 1014.0 0.0
15/11:00pm 24.6 29.6 22.5 88 1.4 CALM 0 0 0 0 1014.6 1014.4 0.0
15/10:30pm 24.7 29.5 22.2 86 1.7 CALM 0 0 0 0 1014.7 1014.5 0.0
15/10:00pm 25.2 30.2 22.5 85 1.8 CALM 0 0 0 0 1014.8 1014.6 0.0
15/09:30pm 25.7 30.8 22.6 83 2.1 CALM 0 0 0 0 1014.7 1014.5 0.0
15/09:00pm 26.0 31.0 22.5 81 2.4 CALM 0 0 0 0 1014.7 1014.5 0.0
15/08:30pm 27.1 30.7 22.1 74 3.4 N 6 7 3 4 1014.5 1014.3 0.0
15/08:00pm 27.2 30.7 22.2 74 3.4 N 7 9 4 5 1014.2 1014.0 0.0
15/07:30pm 27.7 30.9 21.7 70 4.0 NNE 7 9 4 5 1013.7 1013.5 0.0
15/07:00pm 28.4 31.9 22.2 69 4.2 NNE 7 11 4 6 1013.3 1013.1 0.0
15/06:30pm 28.9 33.2 23.6 73 3.7 N 7 9 4 5 1012.7 1012.5 0.0
15/06:00pm 29.3 33.2 23.0 69 4.3 NNW 7 11 4 6 1012.2 1012.0 0.0
15/05:30pm 29.8 33.5 22.5 65 5.0 NNW 7 9 4 5 1011.7 1011.5 0.0
15/05:00pm 31.1 34.7 23.0 62 5.6 NNW 9 15 5 8 1011.2 1011.0 0.0
15/04:30pm 31.6 33.9 22.0 56 6.5 NNW 13 19 7 10 1010.8 1010.6 0.0
15/04:00pm 32.4 34.8 22.2 55 7.0 NNW 13 20 7 11 1010.6 1010.4 0.0
15/03:30pm 32.9 34.7 21.1 50 7.9 NNW 13 20 7 11 1010.5 1010.3 0.0
15/03:00pm 33.2 34.8 21.4 50 8.0 NNW 15 19 8 10 1010.2 1010.0 0.0
15/02:30pm 33.2 34.5 21.7 51 7.8 NNW 17 22 9 12 1010.4 1010.2 0.0
15/02:00pm 33.7 34.9 21.5 49 8.3 N 17 28 9 15 1010.5 1010.3 0.0
15/01:30pm 33.2 34.0 21.7 51 7.8 NNW 20 28 11 15 1010.8 1010.6 0.0
15/01:00pm 34.9 36.4 19.7 41 10.1 ENE 11 20 6 11 1011.1 1010.9 0.0
15/12:30pm 33.9 34.6 18.8 41 9.9 ENE 13 20 7 11 1011.8 1011.6 0.0
15/12:00pm 34.9 36.5 20.8 43 9.5 NE 13 26 7 14 1012.2 1012.0 0.0

Other Formats:

Comma delimited format used in spreadsheet applications
http://www.bom.gov.au/fwo/IDW60801/IDW60801.94100.axf

JavaScript Object Notation format (JSON) in row-major order
http://www.bom.gov.au/fwo/IDW60801/IDW60801.94100.json